Latest Weather Observations for Busselton Jetty

IDW60801

Issued at 3:35 pm WST Friday 25 April 2014 (issued every 30 minutes, with the page automatically refreshed every 10 minutes)

About weather observations | Map of weather stations | Latest weather observations for WA | Other Formats
Station Details ID: 009937 Name: BUSSELTON JETTY Lat: -33.63 Lon: 115.34 Height: 3.0 m
Data from the previous 72 hours. | See also: Recent months for locations in Western Australia
Date/Time
WST
Temp
°C
App
Temp
°C
Dew
Point
Rel
Hum
%
Delta-T
°C
Wind Press
QNH
hPa
Press
MSL
hPa
Rain
since 9 am
mm
Dir
 
Spd
km/h
Gust
km/h
Spd
kts
Gust
kts
25/03:30pm - - - - - S 15 20 8 11 - - -
25/03:00pm - - - - - SSE 22 30 12 16 - - -
25/02:30pm - - - - - S 20 28 11 15 - - -
25/02:00pm - - - - - SSW 11 15 6 8 - - -
25/01:30pm - - - - - S 11 17 6 9 - - -
25/01:00pm - - - - - S 11 20 6 11 - - -
25/12:30pm - - - - - S 19 28 10 15 - - -
25/12:00pm - - - - - S 20 30 11 16 - - -
25/11:30am - - - - - S 22 30 12 16 - - -
25/11:00am - - - - - S 24 30 13 16 - - -
25/10:30am - - - - - S 30 39 16 21 - - -
25/10:00am - - - - - S 30 37 16 20 - - -
25/09:30am - - - - - S 30 39 16 21 - - -
25/09:00am - - - - - S 20 28 11 15 - - -
25/08:30am - - - - - S 19 26 10 14 - - -
25/08:00am - - - - - SSW 17 24 9 13 - - -
25/07:30am - - - - - SSW 17 20 9 11 - - -
25/07:00am - - - - - SSW 20 24 11 13 - - -
25/06:30am - - - - - SSW 15 19 8 10 - - -
25/06:00am - - - - - SSW 13 17 7 9 - - -
25/05:30am - - - - - SSW 15 17 8 9 - - -
25/05:00am - - - - - SSW 15 19 8 10 - - -
25/04:30am - - - - - S 15 19 8 10 - - -
25/04:00am - - - - - SSW 15 17 8 9 - - -
25/03:30am - - - - - SSW 13 17 7 9 - - -
25/03:00am - - - - - SSW 13 17 7 9 - - -
25/02:30am - - - - - SW 17 20 9 11 - - -
25/02:00am - - - - - SW 15 19 8 10 - - -
25/01:30am - - - - - SSW 15 17 8 9 - - -
25/01:00am - - - - - SW 19 22 10 12 - - -
25/12:30am - - - - - SW 17 20 9 11 - - -
25/12:00am - - - - - SW 19 20 10 11 - - -
 
Date/Time
WST
Temp
°C
App
Temp
°C
Dew
Point
Rel
Hum
%
Delta-T
°C
Wind Press
QNH
hPa
Press
MSL
hPa
Rain
since 9 am
mm
Dir
 
Spd
km/h
Gust
km/h
Spd
kts
Gust
kts
24/11:30pm - - - - - SW 17 19 9 10 - - -
24/11:00pm - - - - - SSW 17 19 9 10 - - -
24/10:30pm - - - - - SSW 17 22 9 12 - - -
24/10:00pm - - - - - S 17 24 9 13 - - -
24/09:30pm - - - - - SSW 20 26 11 14 - - -
24/09:00pm - - - - - SSW 26 32 14 17 - - -
24/08:30pm - - - - - SSW 22 32 12 17 - - -
24/08:00pm - - - - - SSW 20 26 11 14 - - -
24/07:30pm - - - - - SW 28 33 15 18 - - -
24/07:00pm - - - - - SW 30 32 16 17 - - -
24/06:30pm - - - - - SW 26 30 14 16 - - -
24/06:00pm - - - - - SW 26 32 14 17 - - -
24/05:30pm - - - - - SW 17 19 9 10 - - -
24/05:00pm - - - - - WSW 13 17 7 9 - - -
24/04:30pm - - - - - NW 15 17 8 9 - - -
24/04:00pm - - - - - NNW 13 15 7 8 - - -
24/03:30pm - - - - - NNW 13 15 7 8 - - -
24/03:00pm - - - - - NNW 15 17 8 9 - - -
24/02:30pm - - - - - NNW 15 15 8 8 - - -
24/02:00pm - - - - - N 13 15 7 8 - - -
24/01:30pm - - - - - N 11 13 6 7 - - -
24/01:00pm - - - - - N 13 13 7 7 - - -
24/12:30pm - - - - - NNE 9 9 5 5 - - -
24/12:00pm - - - - - ENE 9 11 5 6 - - -
24/11:30am - - - - - ENE 11 15 6 8 - - -
24/11:00am - - - - - ESE 15 17 8 9 - - -
24/10:30am - - - - - SE 19 24 10 13 - - -
24/10:00am - - - - - SE 20 22 11 12 - - -
24/09:30am - - - - - SE 15 17 8 9 - - -
24/09:00am - - - - - SE 15 17 8 9 - - -
24/08:30am - - - - - SE 15 19 8 10 - - -
24/08:00am - - - - - SSE 13 17 7 9 - - -
24/07:30am - - - - - S 13 15 7 8 - - -
24/07:00am - - - - - S 11 15 6 8 - - -
24/06:30am - - - - - S 13 15 7 8 - - -
24/06:00am - - - - - S 11 13 6 7 - - -
24/05:30am - - - - - S 9 13 5 7 - - -
24/05:00am - - - - - SSE 11 13 6 7 - - -
24/04:30am - - - - - S 11 13 6 7 - - -
24/04:00am - - - - - SSE 13 17 7 9 - - -
24/03:30am - - - - - SSE 13 17 7 9 - - -
24/03:00am - - - - - SSE 11 15 6 8 - - -
24/02:30am - - - - - SE 13 19 7 10 - - -
24/02:00am - - - - - SE 17 20 9 11 - - -
24/01:30am - - - - - SSE 22 26 12 14 - - -
24/01:00am - - - - - SSE 20 28 11 15 - - -
24/12:30am - - - - - SSE 20 26 11 14 - - -
24/12:00am - - - - - S 19 24 10 13 - - -
 
Date/Time
WST
Temp
°C
App
Temp
°C
Dew
Point
Rel
Hum
%
Delta-T
°C
Wind Press
QNH
hPa
Press
MSL
hPa
Rain
since 9 am
mm
Dir
 
Spd
km/h
Gust
km/h
Spd
kts
Gust
kts
23/11:30pm - - - - - S 19 22 10 12 - - -
23/11:00pm - - - - - S 22 26 12 14 - - -
23/10:30pm - - - - - S 22 26 12 14 - - -
23/10:00pm - - - - - S 20 26 11 14 - - -
23/09:30pm - - - - - S 22 28 12 15 - - -
23/09:00pm - - - - - S 22 28 12 15 - - -
23/08:30pm - - - - - S 24 30 13 16 - - -
23/08:00pm - - - - - S 20 26 11 14 - - -
23/07:30pm - - - - - S 20 26 11 14 - - -
23/07:00pm - - - - - S 20 28 11 15 - - -
23/06:30pm - - - - - SSW 22 30 12 16 - - -
23/06:00pm - - - - - S 17 20 9 11 - - -
23/05:30pm - - - - - S 17 22 9 12 - - -
23/05:00pm - - - - - S 17 26 9 14 - - -
23/04:30pm - - - - - S 15 20 8 11 - - -
23/04:00pm - - - - - W 11 15 6 8 - - -
23/03:30pm - - - - - NW 9 13 5 7 - - -
23/03:00pm - - - - - NNW 13 17 7 9 - - -
23/02:30pm - - - - - NNW 17 19 9 10 - - -
23/02:00pm - - - - - NNW 13 15 7 8 - - -
23/01:30pm - - - - - N 15 19 8 10 - - -
23/01:00pm - - - - - NNE 15 17 8 9 - - -
23/12:30pm - - - - - NNE 9 11 5 6 - - -
23/12:00pm - - - - - NE 7 7 4 4 - - -
23/11:30am - - - - - N 7 7 4 4 - - -
23/11:00am - - - - - NE 9 11 5 6 - - -
23/10:30am - - - - - NE 9 11 5 6 - - -
23/10:00am - - - - - NE 9 11 5 6 - - -
23/09:30am - - - - - NE 11 13 6 7 - - -
23/09:00am - - - - - ESE 11 13 6 7 - - -
23/08:30am - - - - - E 13 15 7 8 - - -
23/08:00am - - - - - SE 13 15 7 8 - - -
23/07:30am - - - - - SE 13 15 7 8 - - -
23/07:00am - - - - - E 15 17 8 9 - - -
23/06:30am - - - - - ESE 9 11 5 6 - - -
23/06:00am - - - - - S 6 7 3 4 - - -
23/05:30am - - - - - SE 9 11 5 6 - - -
23/05:00am - - - - - SE 11 15 6 8 - - -
23/04:30am - - - - - SSE 13 15 7 8 - - -
23/04:00am - - - - - SSW 11 13 6 7 - - -
23/03:30am - - - - - SSW 9 11 5 6 - - -
23/03:00am - - - - - SSW 7 9 4 5 - - -
23/02:30am - - - - - SSW 11 15 6 8 - - -
23/02:00am - - - - - SSW 11 13 6 7 - - -
23/01:30am - - - - - SSW 6 19 3 10 - - -
23/01:00am - - - - - SW 9 11 5 6 - - -
23/12:30am - - - - - S 7 9 4 5 - - -
23/12:00am - - - - - S 11 13 6 7 - - -
 
Date/Time
WST
Temp
°C
App
Temp
°C
Dew
Point
Rel
Hum
%
Delta-T
°C
Wind Press
QNH
hPa
Press
MSL
hPa
Rain
since 9 am
mm
Dir
 
Spd
km/h
Gust
km/h
Spd
kts
Gust
kts
22/11:30pm - - - - - S 11 11 6 6 - - -
22/11:00pm - - - - - S 13 15 7 8 - - -
22/10:30pm - - - - - S 11 13 6 7 - - -
22/10:00pm - - - - - S 11 13 6 7 - - -
22/09:30pm - - - - - S 13 17 7 9 - - -
22/09:00pm - - - - - SSW 11 15 6 8 - - -
22/08:30pm - - - - - SW 11 13 6 7 - - -
22/08:00pm - - - - - SW 15 17 8 9 - - -
22/07:30pm - - - - - SW 15 17 8 9 - - -
22/07:00pm - - - - - WSW 17 19 9 10 - - -
22/06:30pm - - - - - WSW 20 24 11 13 - - -
22/06:00pm - - - - - WSW 20 24 11 13 - - -
22/05:30pm - - - - - WSW 28 33 15 18 - - -
22/05:00pm - - - - - W 28 32 15 17 - - -
22/04:30pm - - - - - W 24 30 13 16 - - -
22/04:00pm - - - - - W 20 28 11 15 - - -

Other Formats:

Comma delimited format used in spreadsheet applications
http://www.bom.gov.au/fwo/IDW60801/IDW60801.95602.axf

JavaScript Object Notation format (JSON) in row-major order
http://www.bom.gov.au/fwo/IDW60801/IDW60801.95602.json